Time;durP1;ratioP1;P1;durP2;ratioP2;P2;SDS_P1;SDS_P2;PMS_P1;PMS_P2;Temp;Humidity;BMP_temperature;BMP_pressure;BME280_temperature;BME280_humidity;BME280_pressure;Samples;Min_cycle;Max_cycle;Signal;HPM_P1;HPM_P2
2023/03/12 00:00:57;;;;;;;2.35;1.17;;;;;;;12.15;38.72;99619.38;5072732;28;20058;-65
2023/03/12 00:03:25;;;;;;;1.90;1.13;;;;;;;12.12;38.49;99619.63;5072680;28;20119;-65
2023/03/12 00:05:54;;;;;;;1.90;1.27;;;;;;;12.14;38.87;99638.22;5072616;28;20044;-63
2023/03/12 00:08:22;;;;;;;2.00;1.20;;;;;;;12.13;38.77;99634.69;5072561;28;20059;-65
2023/03/12 00:10:52;;;;;;;1.75;1.05;;;;;;;12.11;38.84;99643.81;5072639;28;20048;-66
2023/03/12 00:13:20;;;;;;;2.33;1.27;;;;;;;12.11;38.74;99643.81;5072654;28;20052;-64
2023/03/12 00:15:48;;;;;;;2.10;1.30;;;;;;;12.10;38.58;99650.97;5072547;28;20114;-64
2023/03/12 00:18:16;;;;;;;1.60;1.00;;;;;;;12.10;38.89;99647.44;5072592;28;20478;-65
2023/03/12 00:20:53;;;;;;;1.67;1.00;;;;;;;12.04;38.63;99646.94;5072345;28;20048;-64
2023/03/12 00:23:21;;;;;;;1.70;1.08;;;;;;;12.06;38.85;99657.50;5072548;28;20400;-65
2023/03/12 00:25:50;;;;;;;2.03;1.02;;;;;;;12.08;38.96;99666.28;5072494;28;20056;-65
2023/03/12 00:28:19;;;;;;;2.42;1.40;;;;;;;12.04;38.50;99665.63;5072342;28;20477;-65
2023/03/12 00:30:47;;;;;;;2.05;1.20;;;;;;;12.07;38.90;99674.41;5072301;28;20098;-65
2023/03/12 00:33:15;;;;;;;1.92;1.20;;;;;;;12.06;38.68;99670.00;5072293;28;20409;-65
2023/03/12 00:35:43;;;;;;;1.92;1.30;;;;;;;12.06;38.69;99670.00;5072106;28;20040;-65
2023/03/12 00:38:12;;;;;;;2.35;1.15;;;;;;;12.02;38.76;99672.94;5072170;28;20048;-65
2023/03/12 00:40:40;;;;;;;2.03;1.27;;;;;;;12.03;38.66;99671.97;5071996;28;20060;-65
2023/03/12 00:43:08;;;;;;;2.22;1.10;;;;;;;12.04;38.70;99680.81;5072147;28;20428;-65
2023/03/12 00:45:38;;;;;;;1.88;1.10;;;;;;;12.00;38.83;99690.91;5072125;28;20428;-65
2023/03/12 00:48:06;;;;;;;2.08;1.02;;;;;;;11.99;38.47;99689.22;5071978;28;20386;-65
2023/03/12 00:50:35;;;;;;;2.05;1.30;;;;;;;11.95;38.34;99693.06;5072060;28;20068;-65
2023/03/12 00:53:03;;;;;;;2.63;1.38;;;;;;;11.97;38.76;99691.16;5071861;28;20044;-63
2023/03/12 00:55:31;;;;;;;2.08;1.23;;;;;;;11.99;38.57;99699.06;5071753;28;20068;-64
2023/03/12 00:58:00;;;;;;;2.17;1.20;;;;;;;11.99;38.63;99699.91;5071827;28;20053;-66
2023/03/12 01:00:28;;;;;;;1.77;1.15;;;;;;;11.97;38.46;99696.50;5071854;28;20051;-66
2023/03/12 01:02:58;;;;;;;1.90;1.08;;;;;;;11.98;38.82;99700.88;5071689;28;20472;-63
2023/03/12 01:05:27;;;;;;;2.15;1.30;;;;;;;11.98;38.81;99706.22;5071742;28;20041;-64
2023/03/12 01:07:55;;;;;;;2.53;1.33;;;;;;;11.97;38.62;99696.50;5071784;28;20056;-64
2023/03/12 01:10:23;;;;;;;3.03;1.33;;;;;;;11.96;38.52;99716.16;5071673;28;20044;-63
2023/03/12 01:12:51;;;;;;;1.98;1.17;;;;;;;11.97;38.68;99712.53;5071665;28;20045;-65
2023/03/12 01:15:21;;;;;;;2.55;1.30;;;;;;;11.93;38.70;99711.03;5071600;28;20098;-65
2023/03/12 01:17:50;;;;;;;1.92;1.20;;;;;;;11.97;38.57;99712.53;5071658;28;20055;-64
2023/03/12 01:20:22;;;;;;;2.45;1.10;;;;;;;11.95;38.60;99706.41;5071727;28;20048;-63
2023/03/12 01:22:50;;;;;;;2.38;1.10;;;;;;;11.94;38.67;99702.03;5071618;28;20048;-64
2023/03/12 01:25:19;;;;;;;1.65;1.00;;;;;;;11.93;38.68;99689.66;5071476;28;20051;-63
2023/03/12 01:27:47;;;;;;;1.60;0.90;;;;;;;11.94;38.61;99694.03;5071509;28;20049;-65
2023/03/12 01:30:15;;;;;;;2.15;1.13;;;;;;;11.93;38.50;99697.66;5071421;28;20056;-66
2023/03/12 01:32:43;;;;;;;2.25;1.10;;;;;;;11.93;38.66;99699.50;5071513;28;20083;-63
2023/03/12 01:35:12;;;;;;;1.85;1.05;;;;;;;11.92;38.62;99695.97;5071456;28;20106;-63
2023/03/12 01:37:41;;;;;;;2.05;1.17;;;;;;;11.90;38.85;99705.94;5071508;28;20045;-65
2023/03/12 01:40:14;;;;;;;2.15;1.30;;;;;;;11.91;38.68;99707.63;5071306;28;20052;-65
2023/03/12 01:42:43;;;;;;;2.22;1.17;;;;;;;11.90;38.72;99708.59;5071679;28;20140;-65
2023/03/12 01:45:44;;;;;;;1.48;0.90;;;;;;;11.91;38.69;99712.97;5071245;28;20052;-64
2023/03/12 01:48:12;;;;;;;1.58;1.10;;;;;;;11.90;38.85;99715.75;5071277;28;20048;-63
2023/03/12 01:50:42;;;;;;;1.83;1.20;;;;;;;11.85;38.62;99713.41;5071331;28;20060;-64
2023/03/12 01:53:12;;;;;;;1.52;1.10;;;;;;;11.88;38.57;99721.22;5070337;28;20052;-65
2023/03/12 01:55:41;;;;;;;2.42;1.10;;;;;;;11.89;38.76;99730.09;5071350;28;20052;-65
2023/03/12 01:58:09;;;;;;;2.30;1.15;;;;;;;11.88;38.71;99729.25;5071331;28;20041;-65
2023/03/12 02:00:38;;;;;;;1.52;1.08;;;;;;;11.86;38.56;99725.81;5071295;28;20049;-64
2023/03/12 02:03:08;;;;;;;1.88;1.35;;;;;;;11.87;38.73;99732.88;5071211;28;20051;-65
2023/03/12 02:05:43;;;;;;;1.80;1.00;;;;;;;11.86;38.53;99732.97;5074083;28;20047;-63
2023/03/12 02:08:14;;;;;;;1.75;1.10;;;;;;;11.84;38.85;99733.09;5075024;28;20101;-63
2023/03/12 02:10:43;;;;;;;1.88;1.25;;;;;;;11.85;38.72;99745.50;5074796;28;20044;-63
2023/03/12 02:13:12;;;;;;;1.60;1.20;;;;;;;11.85;38.50;99749.97;5074886;28;20082;-64
2023/03/12 02:15:40;;;;;;;2.22;1.20;;;;;;;11.85;38.59;99755.31;5074883;28;20405;-64
2023/03/12 02:18:13;;;;;;;1.95;1.27;;;;;;;11.83;38.75;99755.44;5074762;28;20102;-64
2023/03/12 02:20:49;;;;;;;1.88;1.15;;;;;;;11.83;38.61;99762.59;5074694;28;20051;-64
2023/03/12 02:23:28;;;;;;;2.47;1.30;;;;;;;11.82;38.45;99767.09;5074873;28;20048;-64
2023/03/12 02:25:59;;;;;;;1.80;1.17;;;;;;;11.83;38.80;99762.59;5074664;28;20049;-64
2023/03/12 02:28:29;;;;;;;2.17;1.10;;;;;;;11.79;38.56;99751.28;5074554;28;20045;-64
2023/03/12 02:31:02;;;;;;;1.85;1.20;;;;;;;11.81;38.89;99760.06;5074780;28;20106;-64
2023/03/12 02:33:30;;;;;;;2.35;1.27;;;;;;;11.81;38.63;99770.75;5074732;28;20411;-64
2023/03/12 02:35:58;;;;;;;2.08;1.20;;;;;;;11.76;38.84;99763.00;5074341;28;20048;-63
2023/03/12 02:38:37;;;;;;;2.05;1.23;;;;;;;11.79;38.79;99769.13;5074481;28;20052;-63
2023/03/12 02:41:12;;;;;;;1.90;1.10;;;;;;;11.79;38.46;99771.78;5074297;28;20044;-64
2023/03/12 02:43:41;;;;;;;2.70;1.10;;;;;;;11.78;38.90;99776.28;5074443;28;20397;-63
2023/03/12 02:46:09;;;;;;;1.35;0.90;;;;;;;11.77;38.84;99787.91;5074581;28;20067;-63
2023/03/12 02:48:38;;;;;;;1.88;1.25;;;;;;;11.76;38.73;99794.22;5074330;28;20119;-64
2023/03/12 02:51:06;;;;;;;1.83;1.10;;;;;;;11.73;38.61;99791.78;5074157;28;20044;-65
2023/03/12 02:53:34;;;;;;;2.00;1.05;;;;;;;11.74;38.74;99797.00;5074095;28;20052;-64
2023/03/12 02:56:02;;;;;;;2.30;1.10;;;;;;;11.73;38.59;99803.31;5074070;28;20059;-65
2023/03/12 02:58:32;;;;;;;1.52;1.20;;;;;;;11.74;38.86;99813.03;5074239;28;20417;-65
2023/03/12 03:01:00;;;;;;;2.35;1.20;;;;;;;11.73;38.80;99811.34;5074002;28;20290;-65
2023/03/12 03:03:29;;;;;;;2.63;1.40;;;;;;;11.73;38.78;99813.16;5074127;28;20060;-65
2023/03/12 03:05:57;;;;;;;1.95;1.20;;;;;;;11.71;38.53;99812.41;5073870;28;20094;-65
2023/03/12 03:08:25;;;;;;;2.03;1.30;;;;;;;11.71;38.47;99815.09;5073877;28;20504;-65
2023/03/12 03:10:54;;;;;;;1.77;1.10;;;;;;;11.70;38.38;99824.06;5073761;28;20048;-65
2023/03/12 03:13:22;;;;;;;2.03;1.30;;;;;;;11.69;38.73;99822.38;5073746;28;20127;-65
2023/03/12 03:15:51;;;;;;;2.78;1.30;;;;;;;11.68;38.60;99815.31;5072629;28;20094;-65
2023/03/12 03:18:19;;;;;;;2.78;1.30;;;;;;;11.67;38.66;99833.13;5073345;28;20049;-65
2023/03/12 03:20:55;;;;;;;1.95;1.10;;;;;;;11.64;38.57;99832.50;5073525;28;20493;-65
2023/03/12 03:23:23;;;;;;;2.15;1.23;;;;;;;11.65;38.87;99834.22;5073478;28;20044;-64
2023/03/12 03:25:52;;;;;;;2.28;1.30;;;;;;;11.63;38.58;99836.16;5073830;28;20040;-64
2023/03/12 03:28:22;;;;;;;2.47;1.40;;;;;;;11.62;38.69;99837.97;5073559;28;20040;-64
2023/03/12 03:30:54;;;;;;;2.05;1.35;;;;;;;11.62;38.98;99850.47;5073400;28;20082;-64
2023/03/12 03:33:22;;;;;;;2.50;1.35;;;;;;;11.60;38.49;99863.09;5073290;28;20587;-64
2023/03/12 03:35:50;;;;;;;2.30;1.23;;;;;;;11.57;38.63;99858.78;5073349;28;20103;-64
2023/03/12 03:38:19;;;;;;;3.30;1.38;;;;;;;11.61;38.69;99870.13;5073191;28;20048;-64
2023/03/12 03:40:47;;;;;;;1.63;1.25;;;;;;;11.59;38.54;99861.38;5073091;28;20509;-64
2023/03/12 03:43:15;;;;;;;1.70;1.02;;;;;;;11.59;38.66;99866.72;5073198;28;20053;-64
2023/03/12 03:45:44;;;;;;;1.75;1.20;;;;;;;11.57;38.69;99866.81;5073092;28;20045;-64
2023/03/12 03:48:14;;;;;;;2.05;1.30;;;;;;;11.57;38.68;99865.94;5073018;28;20407;-65
2023/03/12 03:50:42;;;;;;;2.15;1.40;;;;;;;11.57;38.43;99865.94;5072975;28;20072;-64
2023/03/12 03:53:11;;;;;;;2.47;1.35;;;;;;;11.56;38.46;99864.25;5073079;28;20045;-64
2023/03/12 03:55:40;;;;;;;3.33;1.48;;;;;;;11.55;38.67;99865.22;5072987;28;20059;-65
2023/03/12 03:58:08;;;;;;;2.83;1.65;;;;;;;11.52;38.68;99854.75;5072861;28;20040;-65
2023/03/12 04:00:36;;;;;;;2.65;1.52;;;;;;;11.50;38.49;99859.34;5072959;28;20131;-65
2023/03/12 04:03:04;;;;;;;2.35;1.35;;;;;;;11.52;38.60;99876.13;5072873;28;20048;-65
2023/03/12 04:05:34;;;;;;;1.92;1.23;;;;;;;11.48;38.59;99878.13;5072773;28;20055;-65
2023/03/12 04:08:02;;;;;;;2.55;1.50;;;;;;;11.50;38.37;99881.56;5072766;28;20102;-65
2023/03/12 04:10:30;;;;;;;2.75;1.40;;;;;;;11.47;38.51;99873.75;5072693;28;20047;-64
2023/03/12 04:12:58;;;;;;;3.78;1.50;;;;;;;11.47;38.42;99869.28;5073811;28;20501;-65
2023/03/12 04:15:26;;;;;;;2.42;1.50;;;;;;;11.45;38.61;99879.22;5079639;28;20044;-65
2023/03/12 04:17:54;;;;;;;2.42;1.60;;;;;;;11.45;38.54;99881.88;5080833;28;20044;-64
2023/03/12 04:20:23;;;;;;;1.90;1.38;;;;;;;11.44;38.44;99896.19;5074263;28;20047;-64
2023/03/12 04:22:52;;;;;;;2.92;1.48;;;;;;;11.42;38.66;99895.47;5072656;28;20094;-64
2023/03/12 04:25:21;;;;;;;2.05;1.27;;;;;;;11.42;38.55;99916.81;5072594;28;20131;-65
2023/03/12 04:27:49;;;;;;;2.38;1.40;;;;;;;11.42;38.59;99915.97;5072058;28;20084;-64
2023/03/12 04:30:17;;;;;;;3.20;1.80;;;;;;;11.39;38.70;99930.41;5072194;28;20048;-65
2023/03/12 04:32:45;;;;;;;2.50;1.45;;;;;;;11.39;38.54;99935.75;5104773;28;20094;-64
2023/03/12 04:35:14;;;;;;;3.50;1.60;;;;;;;11.38;38.57;99939.34;5072382;28;20091;-64
2023/03/12 04:37:42;;;;;;;3.00;1.50;;;;;;;11.37;38.62;99948.31;5072092;28;20124;-64
2023/03/12 04:40:14;;;;;;;2.75;1.58;;;;;;;11.36;38.75;99946.59;5071808;28;20409;-64
2023/03/12 04:42:42;;;;;;;3.17;1.60;;;;;;;11.34;38.35;99959.22;5072207;28;20045;-65
2023/03/12 04:45:11;;;;;;;2.22;1.52;;;;;;;11.34;38.54;99953.88;5072471;28;20071;-64
2023/03/12 04:47:39;;;;;;;3.17;1.73;;;;;;;11.30;38.76;99957.72;5072114;28;20072;-63
2023/03/12 04:50:09;;;;;;;2.35;1.40;;;;;;;11.33;38.64;99956.66;5072236;28;20114;-64
2023/03/12 04:52:38;;;;;;;3.55;1.50;;;;;;;11.32;38.71;99954.94;5071920;28;20501;-64
2023/03/12 04:55:08;;;;;;;2.63;1.40;;;;;;;11.30;38.65;99963.06;5071848;28;20062;-64
2023/03/12 04:57:37;;;;;;;3.63;1.73;;;;;;;11.30;38.60;99962.22;5071858;28;20033;-64
2023/03/12 05:00:09;;;;;;;2.47;1.40;;;;;;;11.29;38.91;99965.81;5071788;28;20044;-64
2023/03/12 05:02:38;;;;;;;2.10;1.40;;;;;;;11.28;38.63;99970.28;5072080;28;20131;-64
2023/03/12 05:05:06;;;;;;;2.78;1.67;;;;;;;11.27;38.80;99968.59;5071699;28;20052;-63
2023/03/12 05:07:34;;;;;;;2.63;1.55;;;;;;;11.23;38.81;99967.09;5071835;28;20225;-63
2023/03/12 05:10:03;;;;;;;2.50;1.58;;;;;;;11.24;38.93;99971.47;5071768;28;20073;-64
2023/03/12 05:12:32;;;;;;;2.55;1.60;;;;;;;11.26;38.84;99987.38;5071922;28;20040;-64
2023/03/12 05:15:02;;;;;;;2.88;1.60;;;;;;;11.23;38.92;99979.59;5070041;28;20067;-64
2023/03/12 05:17:30;;;;;;;2.88;1.65;;;;;;;11.25;38.78;99986.53;5071679;28;20516;-65
2023/03/12 05:19:58;;;;;;;2.25;1.45;;;;;;;11.23;38.58;99985.78;5071581;28;20056;-64
2023/03/12 05:22:26;;;;;;;2.63;1.60;;;;;;;11.23;38.80;99990.28;5071735;28;20045;-65
2023/03/12 05:24:57;;;;;;;3.35;1.70;;;;;;;11.23;38.73;99995.63;5071719;28;20044;-64
2023/03/12 05:27:26;;;;;;;3.22;1.80;;;;;;;11.21;38.70;99992.19;5071665;28;20409;-65
2023/03/12 05:29:54;;;;;;;3.13;1.92;;;;;;;11.21;38.64;100001.06;5071394;28;20055;-65
2023/03/12 05:32:23;;;;;;;2.95;1.75;;;;;;;11.17;39.04;99999.53;5071454;28;20424;-65
2023/03/12 05:34:51;;;;;;;2.88;1.77;;;;;;;11.21;38.88;100010.88;5071594;28;20131;-65
2023/03/12 05:37:19;;;;;;;2.92;2.00;;;;;;;11.19;38.60;100016.31;5071453;28;20522;-65
2023/03/12 05:39:47;;;;;;;3.10;1.83;;;;;;;11.17;38.99;100010.22;5072754;28;20045;-64
2023/03/12 05:42:16;;;;;;;2.53;1.70;;;;;;;11.19;38.89;100013.63;5075573;28;20059;-64
2023/03/12 05:44:44;;;;;;;3.70;2.17;;;;;;;11.16;38.79;100014.69;5075336;28;20063;-65
2023/03/12 05:47:12;;;;;;;4.03;1.90;;;;;;;11.14;38.84;100015.75;5075337;28;20052;-65
2023/03/12 05:49:43;;;;;;;3.20;1.98;;;;;;;11.15;38.92;100022.81;5075289;28;20048;-65
2023/03/12 05:52:11;;;;;;;4.05;1.98;;;;;;;11.16;38.65;100033.38;5075978;28;20068;-65
2023/03/12 05:54:39;;;;;;;3.55;2.10;;;;;;;11.17;38.97;100036.91;5076376;28;20047;-66
2023/03/12 05:57:07;;;;;;;3.10;1.90;;;;;;;11.16;38.80;100043.22;5075549;28;20045;-63
2023/03/12 05:59:35;;;;;;;3.08;1.92;;;;;;;11.15;38.79;100050.38;5075086;28;20103;-63
2023/03/12 06:02:04;;;;;;;3.42;2.05;;;;;;;11.15;38.82;100055.69;5075018;28;20135;-65
2023/03/12 06:04:32;;;;;;;3.13;1.92;;;;;;;11.16;38.79;100061.88;5075135;28;20068;-64
2023/03/12 06:07:01;;;;;;;3.40;2.10;;;;;;;11.16;38.77;100064.56;5075013;28;20123;-65
2023/03/12 06:09:29;;;;;;;3.42;1.88;;;;;;;11.14;38.88;100066.47;5074877;28;20117;-64
2023/03/12 06:11:58;;;;;;;2.75;1.85;;;;;;;11.16;38.77;100072.56;5074950;28;20048;-64
2023/03/12 06:14:26;;;;;;;3.60;2.00;;;;;;;11.16;38.91;100085.91;5074704;28;20053;-63
2023/03/12 06:16:55;;;;;;;2.67;1.73;;;;;;;11.14;38.97;100087.84;5074818;28;20439;-63
2023/03/12 06:19:23;;;;;;;3.03;1.80;;;;;;;11.15;39.10;100097.56;5074550;28;20480;-65
2023/03/12 06:21:51;;;;;;;3.63;1.90;;;;;;;11.16;39.01;100104.59;5074751;28;20049;-63
2023/03/12 06:24:21;;;;;;;3.15;1.80;;;;;;;11.13;38.94;100094.13;5074712;28;20041;-64
2023/03/12 06:26:49;;;;;;;3.30;1.80;;;;;;;11.15;39.08;100102.91;5074412;28;20076;-64
2023/03/12 06:29:17;;;;;;;2.90;1.60;;;;;;;11.16;39.01;100110.81;5074625;28;20067;-65
2023/03/12 06:31:47;;;;;;;3.25;1.80;;;;;;;11.16;39.18;100109.94;5074591;28;20049;-64
2023/03/12 06:34:15;;;;;;;2.95;1.92;;;;;;;11.16;39.04;100115.28;5074457;28;20044;-64
2023/03/12 06:36:44;;;;;;;3.45;1.98;;;;;;;11.16;39.15;100109.94;5074360;28;20494;-63
2023/03/12 06:39:12;;;;;;;2.58;1.50;;;;;;;11.16;39.25;100121.47;5074089;28;20056;-64
2023/03/12 06:41:41;;;;;;;3.00;1.90;;;;;;;11.15;39.07;100124.25;5074243;28;20072;-64
2023/03/12 06:44:09;;;;;;;2.72;1.80;;;;;;;11.16;39.39;100132.16;5074135;28;20547;-64
2023/03/12 06:46:38;;;;;;;2.60;1.70;;;;;;;11.16;39.17;100125.97;5074275;28;20564;-64
2023/03/12 06:49:06;;;;;;;3.15;1.90;;;;;;;11.16;39.40;100129.50;5074119;28;20101;-64
2023/03/12 06:51:35;;;;;;;3.25;1.83;;;;;;;11.16;39.15;100125.97;5074026;28;20083;-65
2023/03/12 06:54:03;;;;;;;3.28;1.83;;;;;;;11.16;39.36;100131.31;5073971;28;20402;-65
2023/03/12 06:56:32;;;;;;;2.40;1.70;;;;;;;11.13;39.32;100126.16;5074388;28;20048;-65
2023/03/12 06:59:01;;;;;;;3.28;1.95;;;;;;;11.17;39.19;100133.00;5073859;28;20036;-65
2023/03/12 07:01:30;;;;;;;2.83;1.65;;;;;;;11.14;39.25;100134.06;5073954;28;20132;-64
2023/03/12 07:03:58;;;;;;;2.72;1.77;;;;;;;11.17;39.11;100135.69;5074048;28;20050;-66
2023/03/12 07:06:26;;;;;;;3.20;1.88;;;;;;;11.17;39.31;100143.69;5073805;28;20048;-64
2023/03/12 07:08:54;;;;;;;3.05;1.83;;;;;;;11.17;39.45;100147.22;5073836;28;20063;-64
2023/03/12 07:11:22;;;;;;;2.80;1.77;;;;;;;11.17;39.32;100149.88;5073870;28;20486;-63
2023/03/12 07:13:51;;;;;;;3.42;2.05;;;;;;;11.17;39.46;100151.69;5073764;28;20051;-65
2023/03/12 07:16:21;;;;;;;3.42;1.90;;;;;;;11.18;39.37;100156.09;5073803;28;20076;-65
2023/03/12 07:18:49;;;;;;;3.75;1.98;;;;;;;11.18;39.50;100156.94;5073642;28;20053;-64
2023/03/12 07:21:21;;;;;;;2.75;1.67;;;;;;;11.17;39.21;100165.91;5073577;28;20071;-65
2023/03/12 07:23:49;;;;;;;3.58;1.90;;;;;;;11.16;39.20;100163.34;5073625;28;20513;-65
2023/03/12 07:26:17;;;;;;;3.90;2.05;;;;;;;11.07;39.45;100148.75;5073472;28;20072;-65
2023/03/12 07:28:46;;;;;;;3.03;1.73;;;;;;;11.19;39.34;100171.13;5073538;28;20163;-65
2023/03/12 07:31:14;;;;;;;2.67;1.80;;;;;;;11.18;39.48;100172.09;5073495;28;20048;-64
2023/03/12 07:33:44;;;;;;;3.45;2.00;;;;;;;11.19;39.27;100171.13;5073386;28;20059;-64
2023/03/12 07:36:12;;;;;;;2.55;1.70;;;;;;;11.19;39.49;100179.16;5073313;28;20375;-65
2023/03/12 07:38:40;;;;;;;2.67;1.80;;;;;;;11.16;39.35;100180.22;5073021;28;20040;-65
2023/03/12 07:41:09;;;;;;;3.40;2.10;;;;;;;11.16;39.01;100187.38;5073292;28;20072;-64
2023/03/12 07:43:37;;;;;;;3.22;2.00;;;;;;;11.18;39.09;100188.13;5073217;28;20139;-65
2023/03/12 07:46:05;;;;;;;3.22;2.00;;;;;;;11.18;39.06;100194.31;5072984;28;20114;-64
2023/03/12 07:48:33;;;;;;;3.35;1.92;;;;;;;11.19;39.45;100189.81;5072910;28;20102;-65
2023/03/12 07:51:03;;;;;;;2.85;1.95;;;;;;;11.18;39.23;100198.78;5072956;28;20045;-65
2023/03/12 07:53:31;;;;;;;3.30;2.08;;;;;;;11.18;39.27;100193.47;5073074;28;20401;-64
2023/03/12 07:56:00;;;;;;;3.45;2.03;;;;;;;11.16;39.41;100193.56;5072935;28;20123;-64
2023/03/12 07:58:28;;;;;;;3.30;1.92;;;;;;;11.18;39.16;100194.31;5072838;28;20055;-64
2023/03/12 08:00:57;;;;;;;3.05;1.98;;;;;;;11.18;39.15;100198.78;5072760;28;20056;-64
2023/03/12 08:03:25;;;;;;;4.20;2.28;;;;;;;11.17;39.35;100197.09;5072100;28;20052;-63
2023/03/12 08:05:58;;;;;;;3.28;2.03;;;;;;;11.17;39.34;100202.41;5072786;28;20438;-65
2023/03/12 08:08:28;;;;;;;;;;;;;;;11.18;39.09;100199.66;5073129;28;20045;-64
2023/03/12 08:10:58;;;;;;;3.50;1.98;;;;;;;11.18;39.14;100202.31;5072803;28;20327;-64
2023/03/12 08:13:26;;;;;;;4.00;2.30;;;;;;;11.18;39.00;100204.13;5072344;28;20048;-66
2023/03/12 08:15:54;;;;;;;2.88;1.75;;;;;;;11.19;39.08;100200.50;5072632;28;20041;-64
2023/03/12 08:18:23;;;;;;;3.28;2.00;;;;;;;11.17;39.16;100205.94;5072798;28;20517;-65
2023/03/12 08:20:52;;;;;;;3.22;1.85;;;;;;;11.19;39.33;100205.84;5072385;28;20044;-63
2023/03/12 08:23:21;;;;;;;3.08;2.05;;;;;;;11.19;39.25;100211.19;5072231;28;20048;-65
2023/03/12 08:25:51;;;;;;;3.65;2.15;;;;;;;11.20;39.36;100217.41;5072349;28;20433;-64
2023/03/12 08:28:21;;;;;;;3.30;1.85;;;;;;;11.20;39.25;100218.28;5072725;28;20044;-65
2023/03/12 08:30:51;;;;;;;2.95;1.73;;;;;;;11.18;39.19;100212.16;5072296;28;20045;-66
2023/03/12 08:33:22;;;;;;;3.47;2.05;;;;;;;11.20;39.31;100218.28;5072199;28;20045;-63
2023/03/12 08:35:51;;;;;;;3.63;2.15;;;;;;;11.16;39.34;100208.72;5072076;28;20573;-64
2023/03/12 08:38:20;;;;;;;2.90;1.83;;;;;;;11.21;39.35;100225.31;5072041;28;20054;-64
2023/03/12 08:40:56;;;;;;;2.95;1.98;;;;;;;11.22;39.43;100227.03;5071806;28;20428;-64
2023/03/12 08:43:25;;;;;;;3.13;1.75;;;;;;;11.22;39.19;100223.50;5072025;28;20045;-64
2023/03/12 08:45:56;;;;;;;3.45;1.80;;;;;;;11.22;39.60;100227.03;5071896;28;20055;-64
2023/03/12 08:48:24;;;;;;;3.67;2.10;;;;;;;11.19;39.30;100216.53;5071974;28;20044;-64
2023/03/12 08:50:55;;;;;;;3.33;1.85;;;;;;;11.21;39.37;100217.31;5071587;28;20048;-63
2023/03/12 08:53:23;;;;;;;2.95;1.85;;;;;;;11.22;39.32;100215.50;5071703;28;20079;-65
2023/03/12 08:55:52;;;;;;;3.33;2.00;;;;;;;11.23;39.44;100219.88;5071737;28;20140;-63
2023/03/12 08:58:23;;;;;;;2.97;1.60;;;;;;;11.24;39.19;100219.78;5071844;28;20622;-63
2023/03/12 09:00:52;;;;;;;3.42;1.90;;;;;;;11.23;39.47;100218.06;5072227;28;21141;-64
2023/03/12 09:03:21;;;;;;;3.28;1.90;;;;;;;11.25;39.18;100221.50;5072008;28;20044;-65
2023/03/12 09:05:50;;;;;;;3.60;1.90;;;;;;;11.26;39.54;100217.84;5071806;28;20052;-65
2023/03/12 09:08:18;;;;;;;3.08;1.85;;;;;;;11.25;39.38;100210.81;5071676;28;20049;-65
2023/03/12 09:10:49;;;;;;;3.50;2.00;;;;;;;11.25;39.58;100209.94;5071878;28;20106;-65
2023/03/12 09:13:18;;;;;;;3.38;1.90;;;;;;;11.29;39.36;100208.78;5071668;28;20123;-65
2023/03/12 09:15:47;;;;;;;4.00;2.05;;;;;;;11.30;39.30;100213.19;5071585;28;20493;-65
2023/03/12 09:18:16;;;;;;;3.20;1.83;;;;;;;11.30;39.43;100213.19;5071578;28;20123;-64
2023/03/12 09:20:44;;;;;;;3.80;2.13;;;;;;;11.32;39.46;100222.81;5071689;28;20048;-64
2023/03/12 09:23:12;;;;;;;3.38;1.92;;;;;;;11.33;39.56;100219.19;5071488;28;20050;-64
2023/03/12 09:25:40;;;;;;;3.10;1.83;;;;;;;11.34;39.57;100214.72;5071336;28;20044;-65
2023/03/12 09:28:08;;;;;;;3.63;2.00;;;;;;;11.33;39.54;100208.50;5071353;28;20052;-64
2023/03/12 09:30:36;;;;;;;3.67;1.67;;;;;;;11.36;39.50;100216.31;5071479;28;20127;-65
2023/03/12 09:33:06;;;;;;;3.38;1.98;;;;;;;11.35;39.75;100206.59;5071545;28;20475;-64
2023/03/12 09:35:35;;;;;;;3.22;2.08;;;;;;;11.40;39.56;100215.19;5071536;28;20044;-64
2023/03/12 09:38:04;;;;;;;3.72;1.80;;;;;;;11.41;39.36;100200.88;5070141;28;20393;-64
2023/03/12 09:40:36;;;;;;;3.42;1.90;;;;;;;11.42;39.49;100199.91;5070996;28;20135;-65
2023/03/12 09:43:10;;;;;;;2.88;1.80;;;;;;;11.42;39.52;100199.91;5070173;28;20064;-64
2023/03/12 09:45:43;;;;;;;3.50;1.80;;;;;;;11.45;39.45;100209.53;5071344;28;20048;-64
2023/03/12 09:48:16;;;;;;;3.70;1.70;;;;;;;11.48;39.83;100203.97;5071268;28;20068;-64
2023/03/12 09:50:47;;;;;;;2.70;1.63;;;;;;;11.51;39.60;100205.63;5071524;28;20044;-64
2023/03/12 09:53:26;;;;;;;2.50;1.73;;;;;;;11.53;39.68;100209.03;5071329;28;20063;-64
2023/03/12 09:55:57;;;;;;;3.22;1.67;;;;;;;11.55;39.71;100202.63;5071292;28;20049;-63
2023/03/12 09:58:29;;;;;;;2.55;1.50;;;;;;;11.58;39.95;100206.91;5071301;28;20067;-64
2023/03/12 10:01:01;;;;;;;2.55;1.50;;;;;;;11.58;39.97;100202.47;5071067;28;20055;-65
2023/03/12 10:03:52;;;;;;;2.88;1.60;;;;;;;11.59;39.94;100198.81;5071228;28;20041;-64
2023/03/12 10:06:24;;;;;;;3.78;2.00;;;;;;;11.67;39.91;100200.97;5071265;28;20102;-64
2023/03/12 10:09:03;;;;;;;2.40;1.67;;;;;;;11.67;39.95;100200.97;5071237;28;20127;-62
2023/03/12 10:11:43;;;;;;;2.65;1.55;;;;;;;11.73;39.94;100211.28;5071164;28;20044;-63
2023/03/12 10:14:23;;;;;;;2.65;1.60;;;;;;;11.75;40.23;100202.19;5071208;28;20098;-65
2023/03/12 10:17:03;;;;;;;4.07;1.67;;;;;;;11.78;40.21;100202.97;5071036;28;20056;-65
2023/03/12 10:19:43;;;;;;;4.15;1.70;;;;;;;11.83;40.05;100207.06;5070980;28;20049;-63
2023/03/12 10:22:21;;;;;;;2.60;1.50;;;;;;;11.88;40.06;100210.31;5070909;28;20053;-64
2023/03/12 10:25:01;;;;;;;3.50;1.80;;;;;;;11.92;40.17;100216.28;5071289;28;20397;-64
2023/03/12 10:27:35;;;;;;;3.22;1.90;;;;;;;11.94;40.03;100206.34;5074604;28;20056;-65
2023/03/12 10:30:13;;;;;;;2.70;1.60;;;;;;;12.00;40.01;100209.50;5074689;28;20041;-65
2023/03/12 10:32:44;;;;;;;3.65;1.85;;;;;;;12.04;40.09;100210.97;5074620;28;20056;-65
2023/03/12 10:35:18;;;;;;;3.28;1.90;;;;;;;12.09;40.20;100209.84;5074519;28;20493;-63
2023/03/12 10:37:51;;;;;;;3.00;1.65;;;;;;;12.12;40.09;100205.13;5074511;28;20101;-63
2023/03/12 10:40:22;;;;;;;3.10;1.75;;;;;;;12.18;40.13;100206.53;5074261;28;20057;-64
2023/03/12 10:42:54;;;;;;;2.85;1.70;;;;;;;12.20;40.03;100207.28;5074372;28;20405;-65
2023/03/12 10:45:31;;;;;;;3.25;1.70;;;;;;;12.28;40.04;100208.50;5074351;28;20143;-65
2023/03/12 10:48:02;;;;;;;2.97;1.60;;;;;;;12.34;40.29;100204.53;5074072;28;20048;-65
2023/03/12 10:50:35;;;;;;;2.65;1.60;;;;;;;12.39;40.14;100205.09;5074194;28;20371;-65
2023/03/12 10:53:24;;;;;;;2.85;1.75;;;;;;;12.42;40.12;100204.00;5074369;28;20268;-65
2023/03/12 10:56:01;;;;;;;3.40;1.70;;;;;;;12.50;39.92;100221.25;5074161;28;20055;-64
2023/03/12 10:58:36;;;;;;;2.92;1.73;;;;;;;12.55;39.66;100224.47;5074058;28;20105;-64
2023/03/12 11:01:11;;;;;;;2.95;1.80;;;;;;;12.57;39.97;100214.53;5074092;28;20044;-65
2023/03/12 11:03:41;;;;;;;2.55;1.60;;;;;;;12.66;40.04;100218.38;5074161;28;20048;-64
2023/03/12 11:06:21;;;;;;;2.30;1.50;;;;;;;12.72;39.82;100217.09;5074008;28;20467;-64
2023/03/12 11:09:04;;;;;;;3.10;1.75;;;;;;;12.78;39.89;100216.66;5073904;28;20416;-65
2023/03/12 11:11:46;;;;;;;2.47;1.60;;;;;;;12.85;40.04;100213.47;5074180;28;20113;-65
2023/03/12 11:14:18;;;;;;;3.08;1.60;;;;;;;12.90;40.04;100218.47;5073696;28;20091;-65
2023/03/12 11:16:46;;;;;;;2.60;1.52;;;;;;;12.97;39.70;100203.69;5073734;28;20075;-64
2023/03/12 11:19:27;;;;;;;3.15;1.80;;;;;;;13.04;39.87;100207.66;5073706;28;20448;-65
2023/03/12 11:22:01;;;;;;;2.85;1.52;;;;;;;13.10;39.55;100201.84;5073608;28;20041;-65
2023/03/12 11:24:29;;;;;;;2.92;1.77;;;;;;;13.15;39.57;100199.72;5073637;28;20485;-65
2023/03/12 11:27:02;;;;;;;3.03;1.58;;;;;;;13.22;39.73;100194.81;5073599;28;20102;-64
2023/03/12 11:29:35;;;;;;;2.65;1.48;;;;;;;13.28;39.52;100204.22;5073616;28;20090;-64
2023/03/12 11:32:15;;;;;;;2.97;1.90;;;;;;;13.35;39.53;100203.66;5073473;28;20477;-64
2023/03/12 11:34:46;;;;;;;3.25;1.65;;;;;;;13.41;39.70;100205.03;5073469;28;20063;-64
2023/03/12 11:37:23;;;;;;;1.92;1.33;;;;;;;13.48;39.44;100203.63;5072441;28;20558;-65
2023/03/12 11:40:12;;;;;;;2.97;1.63;;;;;;;13.54;39.52;100200.50;5073147;28;20052;-65
2023/03/12 11:42:58;;;;;;;2.30;1.50;;;;;;;13.62;39.45;100203.50;5073163;28;20048;-64